Time;durP1;ratioP1;P1;durP2;ratioP2;P2;SDS_P1;SDS_P2;PMS_P1;PMS_P2;Temp;Humidity;BMP_temperature;BMP_pressure;BME280_temperature;BME280_humidity;BME280_pressure;Samples;Min_cycle;Max_cycle;Signal;HPM_P1;HPM_P2
2022/03/30 00:01:55;;;;;;;;;;;;;;;6.99;100.00;100961.94;5117944;28;20389;-68
2022/03/30 00:04:20;;;;;;;;;;;;;;;6.88;100.00;100966.63;5117628;28;19919;-68
2022/03/30 00:06:45;;;;;;;;;;;;;;;6.89;100.00;100960.44;5117321;28;20348;-69
2022/03/30 00:09:12;;;;;;;;;;;;;;;6.80;100.00;100970.38;5125824;27;19938;-69
2022/03/30 00:11:37;;;;;;;;;;;;;;;6.79;100.00;100948.38;5124008;27;19916;-69
2022/03/30 00:14:02;;;;;;;;;;;;;;;6.75;100.00;100952.00;5114661;27;19915;-69
2022/03/30 00:16:27;;;;;;;;;;;;;;;6.74;100.00;100958.19;5118840;27;19926;-69
2022/03/30 00:18:53;;;;;;;;;;;;;;;6.82;100.00;100955.38;5116985;28;19927;-69
2022/03/30 00:21:18;;;;;;;;;;;;;;;6.90;100.00;100946.31;5098514;28;20289;-68
2022/03/30 00:23:43;;;;;;;;;;;;;;;6.75;100.00;100943.22;5116980;28;19916;-69
2022/03/30 00:26:09;;;;;;;;;;;;;;;6.82;100.00;100947.44;5108437;27;20438;-69
2022/03/30 00:28:34;;;;;;;;;;;;;;;6.77;100.00;100944.03;5137319;27;19915;-68
2022/03/30 00:31:00;;;;;;;;;;;;;;;6.63;100.00;100943.53;5117760;27;19915;-69
2022/03/30 00:33:25;;;;;;;;;;;;;;;6.56;100.00;100952.50;5118755;27;19919;-69
2022/03/30 00:35:53;;;;;;;;;;;;;;;6.49;100.00;100951.81;5118777;27;19923;-69
2022/03/30 00:38:18;;;;;;;;;;;;;;;6.54;100.00;100949.03;5118573;27;20404;-69
2022/03/30 00:40:43;;;;;;;;;;;;;;;6.38;100.00;100948.56;5137005;27;19915;-69
2022/03/30 00:43:08;;;;;;;;;;;;;;;6.41;100.00;100944.97;5118831;27;19927;-70
2022/03/30 00:45:34;;;;;;;;;;;;;;;6.44;100.00;100950.16;5136860;27;19967;-69
2022/03/30 00:47:59;;;;;;;;;;;;;;;6.36;100.00;100949.47;5137169;27;19968;-69
2022/03/30 00:50:24;;;;;;;;;;;;;;;6.34;100.00;100943.34;5136710;27;19930;-69
2022/03/30 00:52:51;;;;;;;;;;;;;;;6.32;100.00;100946.03;5136781;27;19920;-69
2022/03/30 00:55:17;;;;;;;;;;;;;;;6.29;100.00;100946.13;5118153;27;19922;-69
2022/03/30 00:57:43;;;;;;;;;;;;;;;6.31;100.00;100938.16;5135949;27;20026;-69
2022/03/30 01:00:09;;;;;;;;;;;;;;;6.38;100.00;100938.00;5136678;27;19938;-69
2022/03/30 01:02:37;;;;;;;;;;;;;;;6.24;100.00;100938.31;5136500;27;20311;-69
2022/03/30 01:05:02;;;;;;;;;;;;;;;6.24;100.00;100933.03;5118059;27;19954;-68
2022/03/30 01:07:28;;;;;;;;;;;;;;;6.19;100.00;100934.91;5118169;27;20265;-69
2022/03/30 01:09:53;;;;;;;;;;;;;;;6.24;100.00;100921.59;5136496;27;19919;-68
2022/03/30 01:12:18;;;;;;;;;;;;;;;6.18;100.00;100917.38;5136372;27;19922;-69
2022/03/30 01:14:44;;;;;;;;;;;;;;;6.09;100.00;100914.94;5118097;27;19916;-68
2022/03/30 01:17:09;;;;;;;;;;;;;;;6.09;100.00;100908.81;5092332;28;19927;-68
2022/03/30 01:19:34;;;;;;;;;;;;;;;6.10;100.00;100907.88;5097111;28;19920;-69
2022/03/30 01:22:00;;;;;;;;;;;;;;;6.06;100.00;100903.59;5097186;28;19915;-69
2022/03/30 01:24:25;;;;;;;;;;;;;;;6.02;100.00;100902.81;5097352;28;20409;-68
2022/03/30 01:26:50;;;;;;;;;;;;;;;6.00;100.00;100901.97;5115777;28;20030;-68
2022/03/30 01:34:43;;;;;;;;;;;;;;;5.69;100.00;100903.53;5115772;28;20363;-69
2022/03/30 01:37:10;;;;;;;;;;;;;;;5.59;100.00;100899.38;5096962;28;19947;-69
2022/03/30 01:39:35;;;;;;;;;;;;;;;5.47;100.00;100896.97;5097058;28;19923;-69
2022/03/30 01:42:00;;;;;;;;;;;;;;;5.50;100.00;100898.69;5115034;28;19916;-68
2022/03/30 01:44:26;;;;;;;;;;;;;;;5.43;100.00;100900.59;5096904;28;19916;-68
2022/03/30 01:46:52;;;;;;;;;;;;;;;5.32;100.00;100888.53;5114975;28;19960;-68
2022/03/30 01:49:21;;;;;;;;;;;;;;;5.27;100.00;100890.38;5096648;28;19916;-68
2022/03/30 01:51:46;;;;;;;;;;;;;;;5.27;100.00;100896.53;5096568;28;19973;-69
2022/03/30 01:54:12;;;;;;;;;;;;;;;5.18;100.00;100901.13;5096246;28;20021;-68
2022/03/30 01:56:37;;;;;;;;;;;;;;;5.15;100.00;100901.19;5096576;28;20342;-68
2022/03/30 01:59:02;;;;;;;;;;;;;;;5.15;100.00;100890.66;5115066;28;19922;-67
2022/03/30 02:01:27;;;;;;;;;;;;;;;5.10;100.00;100887.22;5114702;28;19926;-67
2022/03/30 02:03:52;;;;;;;;;;;;;;;5.03;100.00;100889.13;5096475;28;19962;-69
2022/03/30 02:06:22;;;;;;;;;;;;;;;5.01;100.00;100885.63;5114524;28;19962;-68
2022/03/30 02:08:47;;;;;;;;;;;;;;;4.91;100.00;100883.22;5096299;28;19923;-69
2022/03/30 02:11:12;;;;;;;;;;;;;;;4.84;100.00;100886.88;5096395;28;19922;-69
2022/03/30 02:13:37;;;;;;;;;;;;;;;4.81;100.00;100886.94;5114770;28;20358;-68
2022/03/30 02:16:02;;;;;;;;;;;;;;;4.76;100.00;100886.16;5114709;28;20370;-68
2022/03/30 02:18:28;;;;;;;;;;;;;;;4.74;100.00;100879.13;5114427;28;19939;-68
2022/03/30 02:20:54;;;;;;;;;;;;;;;4.68;100.00;100878.38;5114693;28;19916;-68
2022/03/30 02:23:19;;;;;;;;;;;;;;;4.66;100.00;100878.41;5114954;28;20041;-68
2022/03/30 02:25:44;;;;;;;;;;;;;;;4.68;100.00;100875.75;5096298;28;19970;-68
2022/03/30 02:28:10;;;;;;;;;;;;;;;4.67;100.00;100874.91;5114336;28;19926;-69
2022/03/30 02:30:35;;;;;;;;;;;;;;;4.65;100.00;100865.28;5096283;28;19916;-68
2022/03/30 02:33:01;;;;;;;;;;;;;;;4.68;100.00;100870.47;5114406;28;19916;-68
2022/03/30 02:35:27;;;;;;;;;;;;;;;4.65;100.00;100857.38;5095912;28;19922;-67
2022/03/30 02:37:55;;;;;;;;;;;;;;;4.62;100.00;100860.06;5114397;28;20002;-68
2022/03/30 02:40:20;;;;;;;;;;;;;;;4.58;100.00;100855.78;5114244;28;19923;-68
2022/03/30 02:42:46;;;;;;;;;;;;;;;4.60;100.00;100849.59;5095964;28;20263;-68
2022/03/30 02:45:11;;;;;;;;;;;;;;;4.52;100.00;100843.59;5114223;28;19920;-68
2022/03/30 02:50:20;;;;;;;;;;;;;;;4.40;100.00;100843.81;5114506;28;19922;-68
2022/03/30 02:52:45;;;;;;;;;;;;;;;4.33;100.00;100838.72;5079272;28;19920;-68
2022/03/30 02:55:11;;;;;;;;;;;;;;;4.28;100.00;100838.78;5095695;28;19970;-68
2022/03/30 02:57:36;;;;;;;;;;;;;;;4.25;100.00;100843.22;5095844;28;20335;-68
2022/03/30 03:00:04;;;;;;;;;;;;;;;4.20;100.00;100832.78;5114585;28;19916;-69
2022/03/30 03:02:29;;;;;;;;;;;;;;;4.18;100.00;100836.31;5096671;28;20427;-68
2022/03/30 03:04:55;;;;;;;;;;;;;;;4.17;100.00;100831.97;5115019;28;19919;-67
2022/03/30 03:07:20;;;;;;;;;;;;;;;4.13;100.00;100827.66;5113978;28;19960;-68
2022/03/30 03:09:45;;;;;;;;;;;;;;;4.08;100.00;100837.41;5114514;28;19916;-68
2022/03/30 03:12:10;;;;;;;;;;;;;;;4.06;100.00;100829.53;5114246;28;19919;-68
2022/03/30 03:14:36;;;;;;;;;;;;;;;4.06;100.00;100824.28;5096133;28;19916;-68
2022/03/30 03:17:01;;;;;;;;;;;;;;;4.03;100.00;100824.34;5096181;28;19916;-68
2022/03/30 03:19:28;;;;;;;;;;;;;;;4.04;100.00;100825.19;5095988;28;19959;-68
2022/03/30 03:21:53;;;;;;;;;;;;;;;4.04;100.00;100825.19;5115721;28;19916;-69
2022/03/30 03:24:19;;;;;;;;;;;;;;;4.02;100.00;100827.84;5118314;28;19980;-68
2022/03/30 03:26:44;;;;;;;;;;;;;;;4.01;100.00;100826.09;5118062;28;19920;-68
2022/03/30 03:29:09;;;;;;;;;;;;;;;4.04;100.00;100826.06;5117682;28;19919;-69
2022/03/30 03:31:34;;;;;;;;;;;;;;;3.99;100.00;100825.25;5099575;28;20014;-69
2022/03/30 03:33:59;;;;;;;;;;;;;;;4.02;100.00;100827.84;5117837;28;19915;-69
2022/03/30 03:36:25;;;;;;;;;;;;;;;4.00;100.00;100826.13;5099464;28;19916;-69
2022/03/30 03:38:50;;;;;;;;;;;;;;;4.00;100.00;100826.13;5117805;28;20515;-70
2022/03/30 03:41:16;;;;;;;;;;;;;;;3.96;100.00;100832.31;5099290;28;19916;-68
2022/03/30 03:43:41;;;;;;;;;;;;;;;3.91;100.00;100835.03;5117810;28;19916;-69
2022/03/30 03:46:06;;;;;;;;;;;;;;;3.86;100.00;100833.38;5099291;28;20398;-69
2022/03/30 03:48:32;;;;;;;;;;;;;;;3.80;100.00;100834.31;5117552;28;19917;-69
2022/03/30 03:50:57;;;;;;;;;;;;;;;3.78;100.00;100827.38;5098740;28;19947;-69
2022/03/30 03:53:22;;;;;;;;;;;;;;;3.72;100.00;100830.09;5099136;28;20389;-68
2022/03/30 03:55:48;;;;;;;;;;;;;;;3.72;100.00;100822.22;5117686;28;19916;-69
2022/03/30 03:58:13;;;;;;;;;;;;;;;3.77;100.00;100830.88;5123289;27;20333;-69
2022/03/30 04:00:38;;;;;;;;;;;;;;;3.85;100.00;100823.72;5137906;27;20320;-69
2022/03/30 04:03:03;;;;;;;;;;;;;;;3.90;100.00;100827.16;5119885;27;19915;-69
2022/03/30 04:05:29;;;;;;;;;;;;;;;3.98;100.00;100820.03;5138045;27;19922;-68
2022/03/30 04:07:54;;;;;;;;;;;;;;;4.02;100.00;100816.44;5134509;27;19919;-69
2022/03/30 04:10:20;;;;;;;;;;;;;;;4.05;100.00;100812.00;5112569;27;19968;-68
2022/03/30 04:12:45;;;;;;;;;;;;;;;4.07;100.00;100812.00;5137003;27;19915;-69
2022/03/30 04:15:10;;;;;;;;;;;;;;;4.17;100.00;100810.94;5137537;27;20405;-70
2022/03/30 04:17:41;;;;;;;;;;;;;;;4.19;100.00;100799.50;5111904;27;19923;-70
2022/03/30 04:20:06;;;;;;;;;;;;;;;4.17;100.00;100803.06;5135027;27;19927;-69
2022/03/30 04:22:31;;;;;;;;;;;;;;;4.18;100.00;100797.78;5136216;27;19915;-69
2022/03/30 04:24:57;;;;;;;;;;;;;;;4.10;100.00;100788.28;5111306;27;20363;-70
2022/03/30 04:27:22;;;;;;;;;;;;;;;4.06;100.00;100792.75;5134229;27;19927;-69
2022/03/30 04:29:47;;;;;;;;;;;;;;;3.97;100.00;100786.78;5120095;27;19920;-69
2022/03/30 04:32:12;;;;;;;;;;;;;;;3.90;100.00;100785.13;5145336;27;19915;-69
2022/03/30 04:34:38;;;;;;;;;;;;;;;3.87;100.00;100787.81;5124391;27;20377;-70
2022/03/30 04:37:03;;;;;;;;;;;;;;;3.79;100.00;100781.81;5140478;27;19984;-71
2022/03/30 04:39:28;;;;;;;;;;;;;;;3.76;100.00;100776.59;5120075;27;19926;-69
2022/03/30 04:41:53;;;;;;;;;;;;;;;3.69;100.00;100777.63;5135951;27;19916;-69
2022/03/30 04:44:20;;;;;;;;;;;;;;;3.64;100.00;100777.66;5119054;27;19926;-69
2022/03/30 04:46:45;;;;;;;;;;;;;;;3.61;100.00;100772.47;5118154;27;20421;-69
2022/03/30 04:49:11;;;;;;;;;;;;;;;3.60;100.00;100775.13;5118400;27;19915;-69
2022/03/30 04:51:36;;;;;;;;;;;;;;;3.55;100.00;100782.19;5118707;27;20010;-68
2022/03/30 04:54:02;;;;;;;;;;;;;;;3.53;100.00;100778.75;5136852;27;19916;-70
2022/03/30 04:56:27;;;;;;;;;;;;;;;3.53;100.00;100781.38;5124992;27;19920;-69
2022/03/30 04:58:52;;;;;;;;;;;;;;;3.48;100.00;100780.56;5109158;28;19922;-69
2022/03/30 05:01:17;;;;;;;;;;;;;;;3.41;100.00;100776.28;5115087;27;19966;-69
2022/03/30 05:03:43;;;;;;;;;;;;;;;3.33;100.00;100770.28;5115798;27;20006;-70
2022/03/30 05:06:08;;;;;;;;;;;;;;;3.41;100.00;100774.53;5108915;27;20264;-71
2022/03/30 05:08:33;;;;;;;;;;;;;;;3.29;100.00;100784.34;5136474;27;19928;-69
2022/03/30 05:10:58;;;;;;;;;;;;;;;3.25;100.00;100786.13;5136894;27;20366;-69
2022/03/30 05:13:24;;;;;;;;;;;;;;;3.25;100.00;100788.75;5138744;27;19916;-69
2022/03/30 05:15:49;;;;;;;;;;;;;;;3.17;100.00;100775.75;5118746;27;19915;-74
2022/03/30 05:18:14;;;;;;;;;;;;;;;3.15;100.00;100777.53;5117784;27;19916;-70
2022/03/30 05:20:43;;;;;;;;;;;;;;;3.13;100.00;100776.69;5098031;28;19916;-68
2022/03/30 05:23:08;;;;;;;;;;;;;;;3.10;100.00;100781.09;5135337;27;19965;-70
2022/03/30 05:25:34;;;;;;;;;;;;;;;3.04;100.00;100778.56;5136703;27;19916;-70
2022/03/30 05:27:59;;;;;;;;;;;;;;;3.00;100.00;100767.25;5117787;27;20292;-70
2022/03/30 05:30:24;;;;;;;;;;;;;;;3.00;100.00;100777.75;5136016;27;20286;-69
2022/03/30 05:32:50;;;;;;;;;;;;;;;3.01;100.00;100781.22;5134590;27;20362;-69
2022/03/30 05:35:15;;;;;;;;;;;;;;;2.97;100.00;100780.41;5136135;27;19916;-69
2022/03/30 05:37:40;;;;;;;;;;;;;;;2.98;100.00;100779.50;5136106;27;19968;-70
2022/03/30 05:40:06;;;;;;;;;;;;;;;2.98;100.00;100789.13;5125123;27;19965;-68
2022/03/30 05:42:32;;;;;;;;;;;;;;;3.01;100.00;100789.06;5104339;28;20302;-69
2022/03/30 05:44:57;;;;;;;;;;;;;;;3.02;100.00;100786.47;5113667;28;19927;-69
2022/03/30 05:47:22;;;;;;;;;;;;;;;3.06;100.00;100780.28;5115171;28;19920;-68
2022/03/30 05:49:47;;;;;;;;;;;;;;;3.04;100.00;100784.66;5114945;28;19977;-68
2022/03/30 05:52:13;;;;;;;;;;;;;;;3.09;100.00;100793.34;5096741;28;19922;-68
2022/03/30 05:54:38;;;;;;;;;;;;;;;3.09;100.00;100779.34;5098868;28;19966;-68
2022/03/30 05:57:05;;;;;;;;;;;;;;;3.11;100.00;100783.72;5097107;28;20313;-69
2022/03/30 05:59:32;;;;;;;;;;;;;;;3.13;100.00;100781.94;5115878;28;19923;-69
2022/03/30 06:01:58;;;;;;;;;;;;;;;3.19;100.00;100778.34;5097001;28;20398;-69
2022/03/30 06:04:23;;;;;;;;;;;;;;;3.22;100.00;100775.69;5115171;28;19920;-69
2022/03/30 06:06:50;;;;;;;;;;;;;;;3.28;100.00;100782.63;5108642;27;19922;-68
2022/03/30 06:09:16;;;;;;;;;;;;;;;3.33;100.00;100786.00;5117462;27;19966;-69
2022/03/30 06:11:41;;;;;;;;;;;;;;;3.37;100.00;100793.84;5117809;27;19915;-71
2022/03/30 06:14:06;;;;;;;;;;;;;;;3.44;100.00;100794.59;5118039;27;19920;-70
2022/03/30 06:16:31;;;;;;;;;;;;;;;3.53;100.00;100799.75;5114653;28;19940;-68
2022/03/30 06:18:57;;;;;;;;;;;;;;;3.52;100.00;100800.63;5095596;28;19942;-68
2022/03/30 06:21:22;;;;;;;;;;;;;;;3.60;100.00;100801.38;5101043;27;20310;-68
2022/03/30 06:23:47;;;;;;;;;;;;;;;3.70;100.00;100811.72;5133589;27;20011;-68
2022/03/30 06:26:15;;;;;;;;;;;;;;;3.78;100.00;100806.34;5134229;27;20389;-69
2022/03/30 06:28:40;;;;;;;;;;;;;;;3.88;100.00;100815.81;5116688;27;19965;-69
2022/03/30 06:31:06;;;;;;;;;;;;;;;3.90;100.00;100814.03;5135035;27;19915;-69
2022/03/30 06:33:31;;;;;;;;;;;;;;;3.95;100.00;100815.72;5135217;27;19915;-69
2022/03/30 06:35:56;;;;;;;;;;;;;;;4.06;100.00;100815.53;5135026;27;20297;-68
2022/03/30 06:38:22;;;;;;;;;;;;;;;4.04;100.00;100809.41;5135056;27;19973;-68
2022/03/30 06:40:47;;;;;;;;;;;;;;;4.02;100.00;100812.06;5116602;27;19920;-68
2022/03/30 06:43:15;;;;;;;;;;;;;;;4.01;100.00;100806.84;5134892;27;19941;-69
2022/03/30 06:45:41;;;;;;;;;;;;;;;4.15;100.00;100805.72;5135244;27;19923;-69
2022/03/30 06:48:06;;;;;;;;;;;;;;;4.28;100.00;100798.47;5116844;27;19919;-69
2022/03/30 06:50:32;;;;;;;;;;;;;;;4.43;100.00;100792.94;5135294;27;20376;-69
2022/03/30 06:52:58;;;;;;;;;;;;;;;4.68;100.00;100783.69;5135304;27;19926;-69
2022/03/30 06:55:23;;;;;;;;;;;;;;;4.85;100.00;100778.09;5115953;27;19915;-69
2022/03/30 06:57:48;;;;;;;;;;;;;;;5.04;100.00;100780.31;5134550;27;19921;-69
2022/03/30 07:00:14;;;;;;;;;;;;;;;5.15;100.00;100775.69;5134798;28;20358;-69
2022/03/30 07:02:39;;;;;;;;;;;;;;;5.23;100.00;100768.47;5099451;28;20293;-69
2022/03/30 07:05:04;;;;;;;;;;;;;;;5.19;100.00;100758.03;5134586;28;20384;-68
2022/03/30 07:10:17;;;;;;;;;;;;;;;5.26;100.00;100747.38;5135991;28;20347;-68
2022/03/30 07:12:46;;;;;;;;;;;;;;;5.26;100.00;100736.84;5116404;28;19923;-68
2022/03/30 07:15:12;;;;;;;;;;;;;;;5.27;100.00;100746.44;5135288;28;20002;-68
2022/03/30 07:17:51;;;;;;;;;;;;;;;5.39;100.00;100735.63;5104322;28;19916;-69
2022/03/30 07:20:17;;;;;;;;;;;;;;;5.38;100.00;100730.41;5112945;28;19966;-68
2022/03/30 07:22:43;;;;;;;;;;;;;;;5.48;100.00;100724.91;5112817;28;19962;-68
2022/03/30 07:25:09;;;;;;;;;;;;;;;5.59;100.00;100727.25;5095883;28;19920;-69
2022/03/30 07:27:37;;;;;;;;;;;;;;;5.71;100.00;100734.84;5113754;28;19923;-69
2022/03/30 07:30:03;;;;;;;;;;;;;;;5.82;100.00;100723.19;5112636;28;19915;-68
2022/03/30 07:32:28;;;;;;;;;;;;;;;5.90;100.00;100728.25;5113852;28;19924;-69
2022/03/30 07:34:53;;;;;;;;;;;;;;;6.07;100.00;100724.28;5113726;28;20267;-68
2022/03/30 07:37:19;;;;;;;;;;;;;;;6.08;100.00;100723.38;5112568;28;19916;-69
2022/03/30 07:39:44;;;;;;;;;;;;;;;6.34;100.00;100727.06;5113085;28;19916;-68
2022/03/30 07:42:09;;;;;;;;;;;;;;;6.30;100.00;100721.03;5113991;28;19963;-69
2022/03/30 07:44:34;;;;;;;;;;;;;;;6.32;100.00;100718.38;5113785;28;19920;-68
2022/03/30 07:47:01;;;;;;;;;;;;;;;6.44;100.00;100720.66;5113821;28;20344;-70
2022/03/30 07:49:26;;;;;;;;;;;;;;;6.58;100.00;100723.75;5116277;28;19916;-70
2022/03/30 07:51:51;;;;;;;;;;;;;;;6.68;100.00;100715.53;5115136;28;19916;-70
2022/03/30 07:54:16;;;;;;;;;;;;;;;6.73;100.00;100718.91;5112717;28;19927;-70
2022/03/30 07:56:42;;;;;;;;;;;;;;;6.92;100.00;100716.59;5114210;28;19923;-69
2022/03/30 07:59:07;;;;;;;;;;;;;;;7.11;100.00;100720.41;5113680;28;19920;-69
2022/03/30 08:01:32;;;;;;;;;;;;;;;7.17;100.00;100713.16;5114245;28;20393;-68
2022/03/30 08:03:58;;;;;;;;;;;;;;;7.39;100.00;100718.66;5118987;28;19915;-68
2022/03/30 08:06:23;;;;;;;;;;;;;;;7.47;100.00;100711.34;5121256;28;19920;-68
2022/03/30 08:08:48;;;;;;;;;;;;;;;7.54;100.00;100718.16;5117150;28;19919;-69
2022/03/30 08:11:13;;;;;;;;;;;;;;;7.71;100.00;100713.19;5133031;27;19916;-68
2022/03/30 08:13:39;;;;;;;;;;;;;;;7.64;100.00;100711.69;5129147;27;19926;-68
2022/03/30 08:16:04;;;;;;;;;;;;;;;8.00;100.00;100699.88;5128619;27;19926;-69
2022/03/30 08:18:30;;;;;;;;;;;;;;;8.50;100.00;100698.97;5109921;27;19977;-69
2022/03/30 08:23:38;;;;;;;;;;;;;;;8.57;100.00;100695.16;5126144;27;19922;-69
2022/03/30 08:26:04;;;;;;;;;;;;;;;8.87;100.00;100701.97;5133983;27;19915;-68
2022/03/30 08:28:30;;;;;;;;;;;;;;;9.24;100.00;100698.75;5131978;27;19927;-69
2022/03/30 08:30:55;;;;;;;;;;;;;;;9.40;100.00;100706.97;5134140;27;20047;-68
2022/03/30 08:33:23;;;;;;;;;;;;;;;9.50;100.00;100716.28;5136371;27;19916;-68
2022/03/30 08:35:50;;;;;;;;;;;;;;;9.62;100.00;100698.09;5132902;27;19920;-68
2022/03/30 08:38:15;;;;;;;;;;;;;;;9.93;100.00;100705.63;5118643;27;19960;-69
2022/03/30 08:40:40;;;;;;;;;;;;;;;10.30;100.00;100697.88;5115773;27;19915;-69
2022/03/30 08:43:05;;;;;;;;;;;;;;;10.72;100.00;100696.81;5114735;27;20021;-68
2022/03/30 08:45:31;;;;;;;;;;;;;;;10.93;100.00;100694.97;5132964;27;19916;-69
2022/03/30 08:47:56;;;;;;;;;;;;;;;10.56;100.00;100689.59;5135964;27;19920;-68
2022/03/30 08:50:22;;;;;;;;;;;;;;;10.78;100.00;100698.31;5131621;27;19915;-69
2022/03/30 08:52:49;;;;;;;;;;;;;;;10.41;100.00;100684.97;5137455;27;19920;-73
2022/03/30 08:55:15;;;;;;;;;;;;;;;10.89;100.00;100684.56;5113075;27;19920;-69
2022/03/30 08:57:40;;;;;;;;;;;;;;;10.81;100.00;100683.09;5127303;27;19919;-69
2022/03/30 09:00:13;;;;;;;;;;;;;;;10.61;100.00;100679.63;5098458;28;19981;-69
2022/03/30 09:02:40;;;;;;;;;;;;;;;10.84;100.00;100677.63;5098167;28;19920;-68
2022/03/30 09:05:19;;;;;;;;;;;;;;;11.49;100.00;100676.28;5098083;28;19965;-68
2022/03/30 09:07:48;;;;;;;;;;;;;;;11.88;100.00;100669.88;5116637;28;19916;-70
2022/03/30 09:10:15;;;;;;;;;;;;;;;12.08;100.00;100663.56;5117162;28;19989;-69
2022/03/30 09:12:40;;;;;;;;;;;;;;;11.48;100.00;100666.59;5120328;28;19919;-69
2022/03/30 09:15:06;;;;;;;;;;;;;;;11.85;100.00;100655.91;5102299;28;19938;-69
2022/03/30 09:17:38;;;;;;;;;;;;;;;11.71;100.00;100661.91;5114159;27;19957;-68
2022/03/30 09:20:04;;;;;;;;;;;;;;;11.55;100.00;100660.91;5139389;27;19920;-68
2022/03/30 09:22:31;;;;;;;;;;;;;;;11.58;100.00;100655.44;5120525;27;19943;-69
2022/03/30 09:24:57;;;;;;;;;;;;;;;12.19;100.00;100648.75;5138935;27;19916;-68
2022/03/30 09:27:24;;;;;;;;;;;;;;;12.69;100.00;100658.50;5140050;27;19916;-69
2022/03/30 09:29:49;;;;;;;;;;;;;;;14.15;100.00;100650.91;5139200;27;19915;-70
2022/03/30 09:32:14;;;;;;;;;;;;;;;14.46;100.00;100663.31;5137419;27;19942;-69
2022/03/30 09:34:50;;;;;;;;;;;;;;;14.48;100.00;100658.75;5137140;27;19933;-69
2022/03/30 09:37:15;;;;;;;;;;;;;;;14.08;100.00;100654.91;5136670;27;19944;-69
2022/03/30 09:39:41;;;;;;;;;;;;;;;13.69;100.00;100658.09;5137324;27;19916;-69
2022/03/30 09:42:08;;;;;;;;;;;;;;;13.48;100.00;100653.16;5136708;27;19919;-70
2022/03/30 09:44:54;;;;;;;;;;;;;;;13.26;100.00;100650.00;5137261;27;20004;-70
2022/03/30 09:47:20;;;;;;;;;;;;;;;13.42;100.00;100645.50;5136778;27;20014;-69
2022/03/30 09:49:46;;;;;;;;;;;;;;;13.26;100.00;100644.66;5117917;27;19950;-69
2022/03/30 09:52:11;;;;;;;;;;;;;;;12.76;100.00;100642.13;5136940;27;20341;-69
2022/03/30 09:54:37;;;;;;;;;;;;;;;13.88;100.00;100640.06;5118583;27;19923;-69
2022/03/30 09:57:07;;;;;;;;;;;;;;;14.20;100.00;100634.63;5118015;27;19924;-68
2022/03/30 09:59:52;;;;;;;;;;;;;;;14.54;100.00;100636.97;5136231;27;19916;-69
2022/03/30 10:02:18;;;;;;;;;;;;;;;14.66;100.00;100639.75;5135662;27;19922;-68
2022/03/30 10:04:44;;;;;;;;;;;;;;;14.46;100.00;100641.94;5117292;27;19915;-68
2022/03/30 10:07:09;;;;;;;;;;;;;;;15.44;100.00;100651.69;5117549;27;20367;-68
2022/03/30 10:09:37;;;;;;;;;;;;;;;15.66;100.00;100633.25;5136259;27;19954;-68
2022/03/30 10:12:03;;;;;;;;;;;;;;;16.11;100.00;100636.34;5135969;27;19916;-68
2022/03/30 10:14:29;;;;;;;;;;;;;;;15.72;100.00;100620.31;5117389;27;19926;-68
2022/03/30 10:16:54;;;;;;;;;;;;;;;15.49;100.00;100628.97;5117519;27;19915;-68
2022/03/30 10:19:20;;;;;;;;;;;;;;;16.73;100.00;100635.50;5135292;27;20474;-68
2022/03/30 10:21:56;;;;;;;;;;;;;;;17.72;100.00;100626.44;5116728;27;19915;-68
2022/03/30 10:24:36;;;;;;;;;;;;;;;18.16;100.00;100630.13;5135390;27;20017;-70
2022/03/30 10:27:10;;;;;;;;;;;;;;;16.83;100.00;100641.94;5135431;27;19922;-68
2022/03/30 10:29:36;;;;;;;;;;;;;;;16.90;100.00;100644.19;5135419;27;19915;-67
2022/03/30 10:32:16;;;;;;;;;;;;;;;15.69;100.00;100633.91;5135418;27;19915;-67
2022/03/30 10:34:49;;;;;;;;;;;;;;;16.08;100.00;100635.69;5135134;27;20297;-68
2022/03/30 10:37:15;;;;;;;;;;;;;;;16.60;100.00;100636.50;5100006;27;19954;-68
2022/03/30 10:40:05;;;;;;;;;;;;;;;16.62;100.00;100634.56;5134931;27;19946;-69
2022/03/30 10:42:45;;;;;;;;;;;;;;;17.02;100.00;100625.38;5135673;27;19916;-69
2022/03/30 10:45:18;;;;;;;;;;;;;;;17.71;100.00;100632.78;5135509;27;19954;-69
2022/03/30 10:48:03;;;;;;;;;;;;;;;17.46;100.00;100627.53;5134794;27;19959;-69
2022/03/30 10:50:33;;;;;;;;;;;;;;;16.40;100.00;100631.66;5134539;27;19919;-68
2022/03/30 10:52:58;;;;;;;;;;;;;;;15.88;100.00;100631.69;5134677;27;19950;-69
2022/03/30 10:55:26;;;;;;;;;;;;;;;15.72;100.00;100630.16;5135182;27;20344;-73
2022/03/30 10:58:01;;;;;;;;;;;;;;;15.65;100.00;100627.00;5136511;27;19961;-70
2022/03/30 11:00:34;;;;;;;;;;;;;;;17.57;100.00;100623.06;5137349;27;19915;-69
2022/03/30 11:03:20;;;;;;;;;;;;;;;18.58;100.00;100627.81;5116987;28;20011;-69
2022/03/30 11:05:59;;;;;;;;;;;;;;;19.11;100.00;100629.72;5134978;28;20371;-68
2022/03/30 11:08:33;;;;;;;;;;;;;;;18.20;100.00;100617.28;5131512;28;19920;-68
2022/03/30 11:11:02;;;;;;;;;;;;;;;17.87;100.00;100623.44;5131881;28;19924;-68
2022/03/30 11:13:27;;;;;;;;;;;;;;;17.06;100.00;100609.91;5116157;28;19959;-68
2022/03/30 11:15:59;;;;;;;;;;;;;;;17.05;100.00;100602.84;5134458;28;20402;-69
2022/03/30 11:18:25;;;;;;;;;;;;;;;18.36;100.00;100596.31;5131241;28;19947;-69
2022/03/30 11:21:09;;;;;;;;;;;;;;;19.86;100.00;100590.22;5125997;28;19978;-69
2022/03/30 11:23:35;;;;;;;;;;;;;;;20.74;100.00;100593.19;5129933;28;19919;-67
2022/03/30 11:26:00;;;;;;;;;;;;;;;22.18;100.00;100594.31;5128181;28;19915;-69
2022/03/30 11:28:36;;;;;;;;;;;;;;;21.99;100.00;100580.81;5127322;28;19926;-69
2022/03/30 11:31:03;;;;;;;;;;;;;;;22.83;100.00;100582.59;5132693;28;19977;-69
2022/03/30 11:33:32;;;;;;;;;;;;;;;22.16;100.00;100586.34;5132541;28;19920;-69
2022/03/30 11:35:57;;;;;;;;;;;;;;;22.71;100.00;100581.91;5121173;28;20331;-71
2022/03/30 11:38:25;;;;;;;;;;;;;;;22.41;100.00;100582.13;5128449;28;20002;-71
2022/03/30 11:40:56;;;;;;;;;;;;;;;22.58;100.00;100584.13;5115523;28;20358;-69
2022/03/30 11:43:23;;;;;;;;;;;;;;;22.08;100.00;100580.78;5116322;27;19919;-69
2022/03/30 11:45:50;;;;;;;;;;;;;;;23.40;100.00;100568.75;5118598;27;19923;-69
2022/03/30 11:48:16;;;;;;;;;;;;;;;22.48;100.00;100580.56;5132241;27;19955;-68
2022/03/30 11:50:42;;;;;;;;;;;;;;;21.90;100.00;100566.31;5127561;27;19962;-69
2022/03/30 11:53:09;;;;;;;;;;;;;;;22.90;100.00;100571.00;5132675;27;20396;-69
2022/03/30 11:55:36;;;;;;;;;;;;;;;23.00;100.00;100577.22;5135134;27;19942;-69
2022/03/30 11:58:03;;;;;;;;;;;;;;;23.73;100.00;100578.91;5137334;27;19915;-69
2022/03/30 12:00:29;;;;;;;;;;;;;;;22.83;100.00;100571.75;5114939;27;20050;-69
2022/03/30 12:02:56;;;;;;;;;;;;;;;22.01;100.00;100571.56;5118776;27;19969;-69
2022/03/30 12:05:21;;;;;;;;;;;;;;;22.48;100.00;100576.00;5136817;27;20013;-70
2022/03/30 12:07:50;;;;;;;;;;;;;;;22.13;100.00;100574.94;5120886;27;19969;-69
2022/03/30 12:10:16;;;;;;;;;;;;;;;23.34;100.00;100553.06;5132712;27;20393;-69
2022/03/30 12:12:41;;;;;;;;;;;;;;;23.64;100.00;100560.84;5126824;27;19919;-70
2022/03/30 12:15:25;;;;;;;;;;;;;;;24.14;100.00;100554.69;5118345;27;19924;-70
2022/03/30 12:17:52;;;;;;;;;;;;;;;22.19;100.00;100563.53;5118194;27;19961;-69
2022/03/30 12:20:21;;;;;;;;;;;;;;;21.02;100.00;100551.13;5118343;27;19924;-70
2022/03/30 12:22:52;;;;;;;;;;;;;;;21.90;100.00;100546.53;5131313;27;19916;-69
2022/03/30 12:25:18;;;;;;;;;;;;;;;21.90;100.00;100550.09;5125496;27;20286;-70
2022/03/30 12:27:43;;;;;;;;;;;;;;;22.88;100.00;100547.78;5118255;27;19916;-69
2022/03/30 12:30:09;;;;;;;;;;;;;;;22.60;100.00;100546.91;5134090;27;19928;-69
2022/03/30 12:32:35;;;;;;;;;;;;;;;22.57;100.00;100550.78;5111076;27;19927;-69
2022/03/30 12:35:06;;;;;;;;;;;;;;;22.28;100.00;100549.16;5118154;27;19939;-69
2022/03/30 12:37:31;;;;;;;;;;;;;;;21.80;100.00;100540.25;5109064;27;19966;-70
2022/03/30 12:40:06;;;;;;;;;;;;;;;22.66;100.00;100536.34;5136484;27;19981;-70
2022/03/30 12:42:33;;;;;;;;;;;;;;;22.72;100.00;100529.50;5136319;27;19925;-70
2022/03/30 12:45:00;;;;;;;;;;;;;;;23.04;100.00;100529.03;5131051;27;19915;-70